createdAt,value
2022-12-25T00:02:15.772Z,98219.03
2022-12-25T00:04:45.561Z,98223.25
2022-12-25T00:07:15.046Z,98219.47
2022-12-25T00:09:45.327Z,98223.72
2022-12-25T00:12:15.225Z,98220.13
2022-12-25T00:14:45.151Z,98220.91
2022-12-25T00:17:16.113Z,98221.56
2022-12-25T00:19:46.404Z,98216.97
2022-12-25T00:22:14.963Z,98209.13
2022-12-25T00:24:44.635Z,98204.72
2022-12-25T00:27:14.067Z,98200.69
2022-12-25T00:29:42.981Z,98199.50
2022-12-25T00:32:12.740Z,98196.28
2022-12-25T00:34:43.097Z,98200.31
2022-12-25T00:37:12.581Z,98216.81
2022-12-25T00:39:42.296Z,98221.22
2022-12-25T00:42:20.847Z,98230.84
2022-12-25T00:44:51.568Z,98237.84
2022-12-25T00:47:21.921Z,98223.81
2022-12-25T00:49:53.240Z,98224.81
2022-12-25T00:52:23.661Z,98223.81
2022-12-25T00:54:53.661Z,98220.41
2022-12-25T00:57:23.602Z,98228.22
2022-12-25T00:59:53.118Z,98233.66
2022-12-25T01:02:25.149Z,98232.00
2022-12-25T01:04:58.486Z,98226.13
2022-12-25T01:07:29.626Z,98231.19
2022-12-25T01:10:16.022Z,98224.34
2022-12-25T01:12:46.165Z,98227.16
2022-12-25T01:15:15.486Z,98229.09
2022-12-25T01:17:45.305Z,98225.06
2022-12-25T01:20:17.898Z,98231.09
2022-12-25T01:22:47.214Z,98227.50
2022-12-25T01:25:16.520Z,98222.44
2022-12-25T01:27:46.077Z,98226.03
2022-12-25T01:30:15.975Z,98208.56
2022-12-25T01:32:45.590Z,98206.94
2022-12-25T01:35:16.797Z,98212.53
2022-12-25T01:37:46.382Z,98206.47
2022-12-25T01:40:16.168Z,98211.25
2022-12-25T01:42:45.733Z,98208.63
2022-12-25T01:45:42.191Z,98210.81
2022-12-25T01:48:19.106Z,98206.03
2022-12-25T01:50:56.183Z,98204.78
2022-12-25T01:53:28.634Z,98211.97
2022-12-25T01:56:04.082Z,98195.03
2022-12-25T01:58:33.941Z,98194.91
2022-12-25T02:01:03.934Z,98183.66
2022-12-25T02:03:32.947Z,98186.94
2022-12-25T02:06:06.203Z,98184.84
2022-12-25T02:08:36.352Z,98198.53
2022-12-25T02:11:06.403Z,98194.81
2022-12-25T02:13:36.531Z,98192.41
2022-12-25T02:16:14.628Z,98188.31
2022-12-25T02:18:53.559Z,98186.72
2022-12-25T02:21:53.280Z,98182.47
2022-12-25T02:24:53.295Z,98170.94
2022-12-25T02:27:57.838Z,98174.53
2022-12-25T02:30:32.048Z,98171.16
2022-12-25T02:33:27.551Z,98169.56
2022-12-25T02:36:01.713Z,98165.78
2022-12-25T02:38:38.659Z,98162.53
2022-12-25T02:41:16.996Z,98168.56
2022-12-25T02:44:05.389Z,98170.53
2022-12-25T02:46:54.340Z,98163.34
2022-12-25T02:49:40.657Z,98157.31
2022-12-25T02:52:34.222Z,98158.13
2022-12-25T02:55:27.506Z,98164.00
2022-12-25T02:58:20.563Z,98165.94
2022-12-25T03:01:13.938Z,98155.50
2022-12-25T03:04:05.474Z,98158.94
2022-12-25T03:06:47.169Z,98160.56
2022-12-25T03:09:43.678Z,98163.19
2022-12-25T03:12:20.020Z,98159.44
2022-12-25T03:15:06.920Z,98155.50
2022-12-25T03:17:37.603Z,98151.13
2022-12-25T03:20:30.002Z,98145.91
2022-12-25T03:23:17.122Z,98146.72
2022-12-25T03:26:03.614Z,98142.66
2022-12-25T03:28:33.663Z,98142.47
2022-12-25T03:31:17.276Z,98145.06
2022-12-25T03:34:39.504Z,98131.06
2022-12-25T03:37:46.164Z,98137.72
2022-12-25T03:40:46.993Z,98137.91
2022-12-25T03:43:44.097Z,98129.88
2022-12-25T03:46:50.705Z,98123.53
2022-12-25T03:49:47.562Z,98121.09
2022-12-25T03:52:39.409Z,98136.91
2022-12-25T03:55:30.456Z,98130.69
2022-12-25T03:58:17.232Z,98134.59
2022-12-25T04:01:04.211Z,98134.59
2022-12-25T04:03:48.240Z,98127.94
2022-12-25T04:06:34.851Z,98130.69
2022-12-25T04:09:26.269Z,98136.56
2022-12-25T04:12:13.772Z,98125.13
2022-12-25T04:15:01.174Z,98122.53
2022-12-25T04:17:49.449Z,98133.97
2022-12-25T04:20:37.009Z,98121.38
2022-12-25T04:23:23.967Z,98123.16
2022-12-25T04:26:12.991Z,98123.84
2022-12-25T04:28:59.816Z,98112.28
2022-12-25T04:31:47.489Z,98105.06
2022-12-25T04:34:33.910Z,98098.88
2022-12-25T04:37:03.477Z,98089.25
2022-12-25T04:39:33.614Z,98088.59
2022-12-25T04:42:04.992Z,98085.38
2022-12-25T04:44:34.512Z,98096.44
2022-12-25T04:47:09.153Z,98090.06
2022-12-25T04:49:40.929Z,98081.25
2022-12-25T04:52:10.446Z,98081.25
2022-12-25T04:54:41.510Z,98077.81
2022-12-25T04:57:11.945Z,98067.38
2022-12-25T04:59:41.362Z,98079.44
2022-12-25T05:02:11.570Z,98079.63
2022-12-25T05:04:41.439Z,98079.44
2022-12-25T05:07:11.619Z,98095.91
2022-12-25T05:09:42.448Z,98092.31
2022-12-25T05:12:14.872Z,98096.38
2022-12-25T05:14:44.821Z,98104.81
2022-12-25T05:17:14.811Z,98102.22
2022-12-25T05:19:44.762Z,98109.22
2022-12-25T05:22:15.207Z,98102.03
2022-12-25T05:24:45.709Z,98095.03
2022-12-25T05:27:17.389Z,98088.03
2022-12-25T05:29:46.820Z,98076.78
2022-12-25T05:32:16.526Z,98082.81
2022-12-25T05:34:46.510Z,98076.31
2022-12-25T05:37:17.337Z,98075.03
2022-12-25T05:39:47.370Z,98078.47
2022-12-25T05:42:19.357Z,98073.88
2022-12-25T05:44:48.246Z,98076.31
2022-12-25T05:47:17.217Z,98061.13
2022-12-25T05:49:46.855Z,98069.91
2022-12-25T05:52:16.894Z,98063.72
2022-12-25T05:54:45.999Z,98069.91
2022-12-25T05:57:16.831Z,98067.47
2022-12-25T05:59:47.757Z,98073.50
2022-12-25T06:02:17.919Z,98066.69
2022-12-25T06:04:48.024Z,98073.50
2022-12-25T06:07:17.921Z,98069.09
2022-12-25T06:09:48.449Z,98067.94
2022-12-25T06:12:20.007Z,98073.34
2022-12-25T06:14:50.353Z,98076.78
2022-12-25T06:17:21.467Z,98074.31
2022-12-25T06:19:50.380Z,98074.69
2022-12-25T06:22:19.881Z,98066.69
2022-12-25T06:24:50.072Z,98063.88
2022-12-25T06:27:22.699Z,98073.34
2022-12-25T06:29:52.062Z,98070.72
2022-12-25T06:32:21.024Z,98073.34
2022-12-25T06:34:50.409Z,98070.72
2022-12-25T06:37:20.402Z,98071.53
2022-12-25T06:39:50.580Z,98053.28
2022-12-25T06:42:18.928Z,98046.06
2022-12-25T06:44:51.180Z,98047.88
2022-12-25T06:47:20.729Z,98052.28
2022-12-25T06:49:58.558Z,98055.06
2022-12-25T06:52:28.192Z,98053.28
2022-12-25T06:54:58.418Z,98051.28
2022-12-25T06:57:27.851Z,98048.53
2022-12-25T06:59:58.837Z,98052.72
2022-12-25T07:02:28.603Z,98052.72
2022-12-25T07:05:01.082Z,98039.88
2022-12-25T07:07:31.754Z,98046.72
2022-12-25T07:10:00.963Z,98044.13
2022-12-25T07:12:29.668Z,98041.50
2022-12-25T07:15:01.748Z,98056.34
2022-12-25T07:17:30.937Z,98044.91
2022-12-25T07:20:02.384Z,98039.50
2022-12-25T07:22:31.581Z,98042.13
2022-12-25T07:25:01.110Z,98050.94
2022-12-25T07:27:31.702Z,98048.31
2022-12-25T07:30:06.470Z,98043.91
2022-12-25T07:32:36.905Z,98048.31
2022-12-25T07:35:07.749Z,98047.34
2022-12-25T07:37:38.088Z,98039.34
2022-12-25T07:40:09.011Z,98041.16
2022-12-25T07:42:39.796Z,98047.19
2022-12-25T07:45:11.632Z,98042.13
2022-12-25T07:47:41.393Z,98052.56
2022-12-25T07:50:13.156Z,98048.31
2022-12-25T07:52:43.790Z,98043.31
2022-12-25T07:55:14.474Z,98040.69
2022-12-25T07:57:44.501Z,98035.63
2022-12-25T08:00:16.428Z,98041.84
2022-12-25T08:02:46.138Z,98028.63
2022-12-25T08:05:16.309Z,98028.47
2022-12-25T08:07:46.318Z,98022.59
2022-12-25T08:10:15.811Z,98030.25
2022-12-25T08:12:45.735Z,98043.47
2022-12-25T08:15:18.241Z,98043.09
2022-12-25T08:17:47.768Z,98031.53
2022-12-25T08:20:17.490Z,98030.50
2022-12-25T08:22:46.983Z,98035.56
2022-12-25T08:25:18.319Z,98028.53
2022-12-25T08:27:47.166Z,98028.53
2022-12-25T08:30:19.282Z,98029.16
2022-12-25T08:32:49.904Z,98028.53
2022-12-25T08:35:20.162Z,98033.56
2022-12-25T08:37:49.767Z,98034.38
2022-12-25T08:40:20.255Z,98040.25
2022-12-25T08:42:50.787Z,98038.25
2022-12-25T08:45:22.246Z,98036.09
2022-12-25T08:47:57.252Z,98036.91
2022-12-25T08:50:27.712Z,98039.31
2022-12-25T08:52:59.018Z,98043.41
2022-12-25T08:55:28.655Z,98037.97
2022-12-25T08:57:57.526Z,98035.38
2022-12-25T09:00:28.462Z,98030.97
2022-12-25T09:02:59.233Z,98025.56
2022-12-25T09:05:29.064Z,98029.78
2022-12-25T09:07:59.576Z,98029.78
2022-12-25T09:10:28.462Z,98032.22
2022-12-25T09:12:58.867Z,98027.81
2022-12-25T09:15:30.323Z,98035.66
2022-12-25T09:18:00.505Z,98043.28
2022-12-25T09:20:30.097Z,98039.53
2022-12-25T09:22:59.426Z,98034.91
2022-12-25T09:25:28.901Z,98019.09
2022-12-25T09:27:58.506Z,98012.69
2022-12-25T09:30:30.085Z,98022.16
2022-12-25T09:32:59.680Z,98018.53
2022-12-25T09:35:29.229Z,98023.75
2022-12-25T09:37:59.191Z,98020.75
2022-12-25T09:40:33.581Z,98020.44
2022-12-25T09:43:06.489Z,98021.22
2022-12-25T09:45:40.239Z,98032.09
2022-12-25T09:48:15.622Z,98024.28
2022-12-25T09:50:52.870Z,98021.28
2022-12-25T09:53:35.963Z,98026.94
2022-12-25T09:56:18.915Z,98018.94
2022-12-25T09:59:22.838Z,98014.16
2022-12-25T10:02:28.530Z,98015.59
2022-12-25T10:05:35.191Z,98000.56
2022-12-25T10:08:21.649Z,97994.31
2022-12-25T10:10:59.950Z,97994.97
2022-12-25T10:13:59.971Z,97987.75
2022-12-25T10:16:46.106Z,97995.41
2022-12-25T10:19:55.689Z,97991.81
2022-12-25T10:22:38.562Z,97996.66
2022-12-25T10:25:19.512Z,97994.66
2022-12-25T10:27:56.509Z,97989.25
2022-12-25T10:30:28.381Z,97979.47
2022-12-25T10:33:04.954Z,97973.84
2022-12-25T10:35:39.733Z,97984.31
2022-12-25T10:38:17.581Z,97981.53
2022-12-25T10:41:20.667Z,97966.66
2022-12-25T10:43:55.943Z,97974.28
2022-12-25T10:46:49.473Z,97968.09
2022-12-25T10:49:29.621Z,97967.88
2022-12-25T10:52:03.966Z,97970.31
2022-12-25T10:54:38.232Z,97972.75
2022-12-25T10:57:19.386Z,97960.31
2022-12-25T10:59:52.490Z,97939.22
2022-12-25T11:02:28.165Z,97925.94
2022-12-25T11:05:05.363Z,97915.13
2022-12-25T11:07:50.829Z,97890.59
2022-12-25T11:10:25.291Z,97879.59
2022-12-25T11:12:55.631Z,97889.84
2022-12-25T11:15:40.147Z,97888.47
2022-12-25T11:18:22.044Z,97895.09
2022-12-25T11:20:53.228Z,97898.34
2022-12-25T11:23:28.524Z,97882.47
2022-12-25T11:25:59.953Z,97882.88
2022-12-25T11:28:32.185Z,97884.34
2022-12-25T11:31:09.032Z,97885.94
2022-12-25T11:33:46.394Z,97889.78
2022-12-25T11:36:28.677Z,97882.56
2022-12-25T11:39:09.752Z,97878.94
2022-12-25T11:41:41.596Z,97863.88
2022-12-25T11:44:27.744Z,97854.03
2022-12-25T11:47:04.371Z,97852.03
2022-12-25T11:49:50.013Z,97856.88
2022-12-25T11:52:23.339Z,97848.03
2022-12-25T11:55:02.135Z,97843.41
2022-12-25T11:57:34.268Z,97837.81
2022-12-25T12:00:09.923Z,97831.19
2022-12-25T12:02:46.958Z,97832.59
2022-12-25T12:05:23.111Z,97833.84
2022-12-25T12:08:01.296Z,97831.81
2022-12-25T12:10:43.850Z,97828.00
2022-12-25T12:13:33.950Z,97835.28
2022-12-25T12:16:03.971Z,97830.66
2022-12-25T12:18:35.072Z,97829.47
2022-12-25T12:21:10.174Z,97825.66
2022-12-25T12:23:54.964Z,97820.03
2022-12-25T12:26:29.369Z,97814.41
2022-12-25T12:29:02.740Z,97810.59
2022-12-25T12:31:44.207Z,97812.81
2022-12-25T12:34:26.458Z,97805.78
2022-12-25T12:37:03.306Z,97817.06
2022-12-25T12:39:39.696Z,97814.88
2022-12-25T12:42:21.768Z,97816.47
2022-12-25T12:44:52.810Z,97816.28
2022-12-25T12:47:40.572Z,97822.91
2022-12-25T12:50:30.082Z,97823.31
2022-12-25T12:52:59.275Z,97817.91
2022-12-25T12:55:34.043Z,97812.47
2022-12-25T12:58:06.568Z,97814.88
2022-12-25T13:00:50.323Z,97801.59
2022-12-25T13:03:46.441Z,97805.00
2022-12-25T13:06:25.806Z,97796.16
2022-12-25T13:09:14.358Z,97792.16
2022-12-25T13:11:45.572Z,97779.88
2022-12-25T13:14:20.675Z,97783.88
2022-12-25T13:16:53.010Z,97787.31
2022-12-25T13:19:25.041Z,97787.09
2022-12-25T13:21:57.012Z,97785.50
2022-12-25T13:24:29.778Z,97786.91
2022-12-25T13:27:01.087Z,97787.50
2022-12-25T13:29:39.250Z,97797.81
2022-12-25T13:32:22.035Z,97813.13
2022-12-25T13:34:52.561Z,97816.31
2022-12-25T13:37:25.114Z,97809.28
2022-12-25T13:39:58.716Z,97805.47
2022-12-25T13:42:32.917Z,97794.63
2022-12-25T13:45:07.749Z,97798.66
2022-12-25T13:47:39.563Z,97785.34
2022-12-25T13:50:21.796Z,97786.56
2022-12-25T13:52:52.222Z,97780.31
2022-12-25T13:55:23.925Z,97785.97
2022-12-25T13:57:58.221Z,97790.38
2022-12-25T14:00:38.291Z,97790.59
2022-12-25T14:03:16.181Z,97789.97
2022-12-25T14:05:45.636Z,97797.66
2022-12-25T14:08:23.865Z,97802.50
2022-12-25T14:10:55.248Z,97803.31
2022-12-25T14:13:29.859Z,97808.31
2022-12-25T14:16:02.161Z,97817.00
2022-12-25T14:18:32.865Z,97816.19
2022-12-25T14:21:08.730Z,97810.16
2022-12-25T14:23:45.906Z,97810.34
2022-12-25T14:26:19.548Z,97817.41
2022-12-25T14:28:52.230Z,97819.44
2022-12-25T14:31:25.845Z,97812.56
2022-12-25T14:33:55.780Z,97812.56
2022-12-25T14:36:25.803Z,97806.91
2022-12-25T14:39:00.714Z,97808.72
2022-12-25T14:41:37.911Z,97816.59
2022-12-25T14:44:30.934Z,97814.38
2022-12-25T14:47:18.430Z,97821.00
2022-12-25T14:49:50.166Z,97818.59
2022-12-25T14:52:25.281Z,97821.41
2022-12-25T14:55:01.031Z,97826.06
2022-12-25T14:57:36.058Z,97809.72
2022-12-25T15:00:13.160Z,97813.72
2022-12-25T15:03:05.163Z,97812.09
2022-12-25T15:05:37.599Z,97813.28
2022-12-25T15:08:28.043Z,97821.13
2022-12-25T15:11:01.667Z,97827.78
2022-12-25T15:13:32.643Z,97826.94
2022-12-25T15:16:13.621Z,97828.13
2022-12-25T15:18:49.052Z,97827.50
2022-12-25T15:21:26.969Z,97833.50
2022-12-25T15:23:57.590Z,97845.38
2022-12-25T15:26:29.176Z,97844.19
2022-12-25T15:28:59.250Z,97843.97
2022-12-25T15:31:31.652Z,97839.13
2022-12-25T15:34:06.401Z,97823.19
2022-12-25T15:36:36.280Z,97817.91
2022-12-25T15:39:06.129Z,97811.84
2022-12-25T15:41:55.874Z,97810.03
2022-12-25T15:44:26.616Z,97809.00
2022-12-25T15:46:57.267Z,97810.38
2022-12-25T15:49:27.887Z,97809.34
2022-12-25T15:51:58.115Z,97815.53
2022-12-25T15:54:28.352Z,97805.66
2022-12-25T15:57:01.812Z,97809.25
2022-12-25T15:59:31.600Z,97812.84
2022-12-25T16:02:05.378Z,97803.53
2022-12-25T16:04:36.627Z,97793.03
2022-12-25T16:07:07.817Z,97788.19
2022-12-25T16:09:37.542Z,97806.28
2022-12-25T16:12:10.175Z,97843.03
2022-12-25T16:14:39.318Z,97842.31
2022-12-25T16:17:08.957Z,97843.94
2022-12-25T16:19:39.930Z,97846.50
2022-12-25T16:22:14.151Z,97851.09
2022-12-25T16:24:43.783Z,97847.69
2022-12-25T16:27:12.769Z,97856.09
2022-12-25T16:29:43.235Z,97870.34
2022-12-25T16:32:15.127Z,97855.66
2022-12-25T16:34:46.066Z,97853.41
2022-12-25T16:37:16.313Z,97850.16
2022-12-25T16:39:47.110Z,97849.34
2022-12-25T16:42:18.648Z,97853.16
2022-12-25T16:44:48.018Z,97852.28
2022-12-25T16:47:18.103Z,97861.53
2022-12-25T16:49:49.829Z,97848.09
2022-12-25T16:52:20.458Z,97843.66
2022-12-25T16:54:50.248Z,97838.38
2022-12-25T16:57:18.665Z,97832.31
2022-12-25T16:59:48.218Z,97851.41
2022-12-25T17:02:20.343Z,97864.84
2022-12-25T17:04:51.587Z,97875.94
2022-12-25T17:07:20.676Z,97869.69
2022-12-25T17:09:50.832Z,97873.94
2022-12-25T17:12:20.383Z,97865.13
2022-12-25T17:14:48.828Z,97852.88
2022-12-25T17:17:18.386Z,97853.03
2022-12-25T17:19:50.894Z,97858.88
2022-12-25T17:22:21.939Z,97859.06
2022-12-25T17:24:51.092Z,97864.75
2022-12-25T17:27:22.015Z,97853.66
2022-12-25T17:29:52.240Z,97841.22
2022-12-25T17:32:23.567Z,97841.84
2022-12-25T17:34:55.036Z,97837.63
2022-12-25T17:37:25.607Z,97832.75
2022-12-25T17:39:55.675Z,97826.94
2022-12-25T17:42:25.752Z,97842.00
2022-12-25T17:44:55.680Z,97851.41
2022-12-25T17:47:24.647Z,97870.06
2022-12-25T17:49:57.360Z,97866.09
2022-12-25T17:52:26.927Z,97863.50
2022-12-25T17:54:57.035Z,97864.28
2022-12-25T17:57:26.413Z,97866.28
2022-12-25T17:59:55.443Z,97857.66
2022-12-25T18:02:26.832Z,97860.88
2022-12-25T18:04:58.493Z,97866.47
2022-12-25T18:07:27.005Z,97863.88
2022-12-25T18:09:57.076Z,97854.84
2022-12-25T18:12:26.693Z,97847.81
2022-12-25T18:14:56.313Z,97837.97
2022-12-25T18:17:26.318Z,97844.03
2022-12-25T18:19:57.965Z,97847.00
2022-12-25T18:22:27.555Z,97858.88
2022-12-25T18:24:56.535Z,97849.25
2022-12-25T18:27:26.510Z,97849.25
2022-12-25T18:29:55.893Z,97850.44
2022-12-25T18:32:28.126Z,97847.66
2022-12-25T18:35:00.178Z,97839.59
2022-12-25T18:37:33.110Z,97850.88
2022-12-25T18:40:11.445Z,97855.91
2022-12-25T18:42:43.034Z,97853.91
2022-12-25T18:45:18.952Z,97834.00
2022-12-25T18:47:48.183Z,97858.94
2022-12-25T18:50:19.368Z,97843.69
2022-12-25T18:52:51.697Z,97837.69
2022-12-25T18:55:21.627Z,97835.69
2022-12-25T18:57:51.171Z,97829.66
2022-12-25T19:00:21.467Z,97832.91
2022-12-25T19:02:51.474Z,97832.25
2022-12-25T19:05:22.115Z,97845.31
2022-12-25T19:07:51.225Z,97841.72
2022-12-25T19:10:21.548Z,97844.34
2022-12-25T19:12:50.484Z,97840.75
2022-12-25T19:15:19.286Z,97836.31
2022-12-25T19:17:49.084Z,97830.09
2022-12-25T19:20:17.900Z,97813.22
2022-12-25T19:22:48.827Z,97829.72
2022-12-25T19:25:19.464Z,97833.94
2022-12-25T19:27:48.561Z,97843.56
2022-12-25T19:30:19.027Z,97837.38
2022-12-25T19:32:49.650Z,97833.94
2022-12-25T19:35:18.950Z,97842.59
2022-12-25T19:37:49.851Z,97830.53
2022-12-25T19:40:19.685Z,97838.34
2022-12-25T19:42:49.107Z,97836.13
2022-12-25T19:45:18.056Z,97840.91
2022-12-25T19:47:48.193Z,97832.47
2022-12-25T19:50:18.999Z,97834.88
2022-12-25T19:52:50.396Z,97851.75
2022-12-25T19:55:22.044Z,97844.28
2022-12-25T19:57:50.730Z,97838.03
2022-12-25T20:00:25.167Z,97840.84
2022-12-25T20:03:04.981Z,97847.28
2022-12-25T20:05:38.087Z,97845.03
2022-12-25T20:08:07.983Z,97857.00
2022-12-25T20:10:37.437Z,97866.03
2022-12-25T20:13:06.363Z,97858.81
2022-12-25T20:15:36.433Z,97856.41
2022-12-25T20:18:05.845Z,97860.00
2022-12-25T20:20:34.865Z,97869.19
2022-12-25T20:23:04.422Z,97876.84
2022-12-25T20:25:35.287Z,97883.22
2022-12-25T20:28:05.806Z,97892.06
2022-12-25T20:30:35.603Z,97885.84
2022-12-25T20:33:06.099Z,97887.66
2022-12-25T20:35:35.541Z,97891.25
2022-12-25T20:38:04.376Z,97897.66
2022-12-25T20:40:59.994Z,97888.00
2022-12-25T20:43:23.877Z,97905.22
2022-12-25T20:45:53.563Z,97908.09
2022-12-25T20:48:22.648Z,97910.53
2022-12-25T20:50:53.163Z,97913.78
2022-12-25T20:53:22.596Z,97909.16
2022-12-25T20:55:53.798Z,97908.78
2022-12-25T20:58:23.362Z,97894.56
2022-12-25T21:00:52.998Z,97907.88
2022-12-25T21:03:22.625Z,97917.94
2022-12-25T21:05:57.771Z,97904.72
2022-12-25T21:08:29.351Z,97907.50
2022-12-25T21:11:02.236Z,97906.50
2022-12-25T21:13:34.172Z,97908.13
2022-12-25T21:16:05.715Z,97898.03
2022-12-25T21:18:34.204Z,97900.31
2022-12-25T21:21:06.607Z,97899.28
2022-12-25T21:23:37.246Z,97902.72
2022-12-25T21:26:18.544Z,97894.88
2022-12-25T21:28:49.028Z,97897.25
2022-12-25T21:31:19.974Z,97906.69
2022-12-25T21:33:53.974Z,97905.44
2022-12-25T21:36:27.892Z,97907.88
2022-12-25T21:39:01.374Z,97913.09
2022-12-25T21:41:35.049Z,97903.03
2022-12-25T21:44:05.070Z,97916.09
2022-12-25T21:46:34.175Z,97912.66
2022-12-25T21:49:04.636Z,97917.06
2022-12-25T21:51:53.305Z,97925.09
2022-12-25T21:54:24.102Z,97917.72
2022-12-25T21:56:54.414Z,97922.94
2022-12-25T21:59:24.651Z,97925.16
2022-12-25T22:01:54.294Z,97916.97
2022-12-25T22:04:25.302Z,97921.53
2022-12-25T22:07:11.980Z,97915.97
2022-12-25T22:09:40.990Z,97911.75
2022-12-25T22:12:34.068Z,97922.78
2022-12-25T22:15:07.197Z,97926.31
2022-12-25T22:17:56.261Z,97939.56
2022-12-25T22:20:28.238Z,97941.38
2022-12-25T22:22:57.898Z,97937.94
2022-12-25T22:25:28.564Z,97946.59
2022-12-25T22:27:59.958Z,97944.00
2022-12-25T22:30:31.477Z,97937.50
2022-12-25T22:33:00.691Z,97940.03
2022-12-25T22:35:29.709Z,97954.09
2022-12-25T22:37:58.883Z,97953.91
2022-12-25T22:40:28.496Z,97954.66
2022-12-25T22:43:00.224Z,97950.22
2022-12-25T22:45:29.699Z,97942.75
2022-12-25T22:47:58.680Z,97951.41
2022-12-25T22:50:28.179Z,97940.97
2022-12-25T22:52:58.244Z,97940.13
2022-12-25T22:55:28.323Z,97935.28
2022-12-25T22:57:59.301Z,97928.09
2022-12-25T23:00:29.286Z,97932.31
2022-12-25T23:02:58.559Z,97926.09
2022-12-25T23:05:28.124Z,97926.72
2022-12-25T23:07:58.130Z,97927.72
2022-12-25T23:10:27.303Z,97937.72
2022-12-25T23:13:13.456Z,97932.06
2022-12-25T23:15:46.361Z,97942.13
2022-12-25T23:18:31.982Z,97935.28
2022-12-25T23:21:19.624Z,97925.66
2022-12-25T23:24:05.884Z,97919.63
2022-12-25T23:26:35.835Z,97934.47
2022-12-25T23:29:19.666Z,97948.53
2022-12-25T23:31:53.711Z,97938.91
2022-12-25T23:34:24.921Z,97937.28
2022-12-25T23:36:54.055Z,97940.72
2022-12-25T23:39:24.177Z,97932.06
2022-12-25T23:41:54.594Z,97931.63
2022-12-25T23:44:23.171Z,97922.38
2022-12-25T23:46:55.021Z,97923.97
2022-12-25T23:49:25.391Z,97918.56
2022-12-25T23:51:56.466Z,97921.63
2022-12-25T23:54:29.040Z,97922.00
2022-12-25T23:56:59.408Z,97927.75
2022-12-25T23:59:30.655Z,97929.56
